createdAt,value
2019-05-23T00:01:12.657Z,79.23
2019-05-23T00:04:28.282Z,78.93
2019-05-23T00:07:37.116Z,79.12
2019-05-23T00:10:46.403Z,79.18
2019-05-23T00:14:31.154Z,79.19
2019-05-23T00:17:56.563Z,79.35
2019-05-23T00:21:05.828Z,79.24
2019-05-23T00:24:25.490Z,79.31
2019-05-23T00:27:35.696Z,79.21
2019-05-23T00:30:54.590Z,79.29
2019-05-23T00:34:04.349Z,79.30
2019-05-23T00:37:14.091Z,79.58
2019-05-23T00:40:23.187Z,79.54
2019-05-23T00:43:32.461Z,79.50
2019-05-23T00:46:52.822Z,79.43
2019-05-23T00:50:03.273Z,79.59
2019-05-23T00:53:13.572Z,79.65
2019-05-23T00:56:23.658Z,79.63
2019-05-23T00:59:33.535Z,79.92
2019-05-23T01:02:56.956Z,79.84
2019-05-23T01:06:06.775Z,80.19
2019-05-23T01:09:17.053Z,80.42
2019-05-23T01:12:37.809Z,80.27
2019-05-23T01:15:47.889Z,80.34
2019-05-23T01:18:56.487Z,80.06
2019-05-23T01:22:08.378Z,79.97
2019-05-23T01:25:18.275Z,80.22
2019-05-23T01:28:37.494Z,80.32
2019-05-23T01:31:47.889Z,80.15
2019-05-23T01:34:57.978Z,80.17
2019-05-23T01:38:08.197Z,80.43
2019-05-23T01:41:17.208Z,80.49
2019-05-23T01:44:26.509Z,80.60
2019-05-23T01:47:47.887Z,80.72
2019-05-23T01:50:57.776Z,80.63
2019-05-23T01:54:07.360Z,80.62
2019-05-23T01:57:27.001Z,80.52
2019-05-23T02:00:35.612Z,80.46
2019-05-23T02:03:44.820Z,80.80
2019-05-23T02:06:55.576Z,80.61
2019-05-23T02:10:05.174Z,80.39
2019-05-23T02:13:13.780Z,80.28
2019-05-23T02:16:23.594Z,80.32
2019-05-23T02:19:32.152Z,80.33
2019-05-23T02:22:53.239Z,80.09
2019-05-23T02:26:01.781Z,80.22
2019-05-23T02:29:12.115Z,80.73
2019-05-23T02:32:20.750Z,80.98
2019-05-23T02:35:29.982Z,80.91
2019-05-23T02:39:09.994Z,81.19
2019-05-23T02:42:28.655Z,81.35
2019-05-23T02:45:45.665Z,80.70
2019-05-23T02:48:59.103Z,81.63
2019-05-23T02:52:31.754Z,81.77
2019-05-23T02:55:42.508Z,81.71
2019-05-23T02:59:13.761Z,81.26
2019-05-23T03:02:54.905Z,81.86
2019-05-23T03:06:06.776Z,82.05
2019-05-23T03:09:19.812Z,81.93
2019-05-23T03:12:31.670Z,81.99
2019-05-23T03:15:42.369Z,81.77
2019-05-23T03:18:58.150Z,81.97
2019-05-23T03:22:45.114Z,81.92
2019-05-23T03:26:47.339Z,82.03
2019-05-23T03:30:14.357Z,81.87
2019-05-23T03:33:23.612Z,82.27
2019-05-23T03:36:43.621Z,81.48
2019-05-23T03:40:03.986Z,82.14
2019-05-23T03:43:13.654Z,82.11
2019-05-23T03:46:23.844Z,82.33
2019-05-23T03:49:34.078Z,82.29
2019-05-23T03:52:44.174Z,82.72
2019-05-23T03:55:54.730Z,82.61
2019-05-23T03:59:04.736Z,82.77
2019-05-23T04:02:15.898Z,82.73
2019-05-23T04:05:25.186Z,82.47
2019-05-23T04:08:34.621Z,81.97
2019-05-23T04:11:43.725Z,81.69
2019-05-23T04:14:52.862Z,81.82
2019-05-23T04:18:01.582Z,81.36
2019-05-23T04:21:10.517Z,81.25
2019-05-23T04:24:30.475Z,80.90
2019-05-23T04:27:41.191Z,81.33
2019-05-23T04:30:48.729Z,81.11
2019-05-23T04:33:57.615Z,80.57
2019-05-23T04:37:06.465Z,80.17
2019-05-23T04:40:15.822Z,80.20
2019-05-23T04:43:24.724Z,80.26
2019-05-23T04:46:34.994Z,80.02
2019-05-23T04:49:44.412Z,79.97
2019-05-23T04:52:53.144Z,79.63
2019-05-23T04:56:12.651Z,79.64
2019-05-23T04:59:21.281Z,79.59
2019-05-23T05:02:31.148Z,79.74
2019-05-23T05:05:39.985Z,79.52
2019-05-23T05:08:48.993Z,79.35
2019-05-23T05:11:58.658Z,79.00
2019-05-23T05:15:19.937Z,78.76
2019-05-23T05:18:29.153Z,78.57
2019-05-23T05:21:38.504Z,78.47
2019-05-23T05:24:47.117Z,78.45
2019-05-23T05:27:55.819Z,79.01
2019-05-23T05:31:04.620Z,78.56
2019-05-23T05:34:13.154Z,77.60
2019-05-23T05:37:22.906Z,76.94
2019-05-23T05:40:31.823Z,75.45
2019-05-23T05:43:39.439Z,74.19
2019-05-23T05:46:48.349Z,72.12
2019-05-23T05:49:56.945Z,70.69
2019-05-23T05:53:05.782Z,69.33
2019-05-23T05:56:14.495Z,65.80
2019-05-23T05:59:23.284Z,65.13
2019-05-23T06:02:32.136Z,64.96
2019-05-23T06:05:52.635Z,59.92
2019-05-23T06:09:02.685Z,58.98
2019-05-23T06:12:13.011Z,57.88
2019-05-23T06:15:23.253Z,56.99
2019-05-23T06:18:32.392Z,55.02
2019-05-23T06:21:41.944Z,53.14
2019-05-23T06:25:01.095Z,52.75
2019-05-23T06:28:22.458Z,52.25
2019-05-23T06:31:43.411Z,46.98
2019-05-23T06:35:02.360Z,47.37
2019-05-23T06:38:11.150Z,47.23
2019-05-23T06:41:20.387Z,45.88
2019-05-23T06:44:40.026Z,48.67
2019-05-23T06:47:48.974Z,46.93
2019-05-23T06:50:57.712Z,48.35
2019-05-23T06:54:07.053Z,47.87
2019-05-23T06:57:16.257Z,48.77
2019-05-23T07:00:27.778Z,48.83
2019-05-23T07:03:42.182Z,49.01
2019-05-23T07:06:47.217Z,49.65
2019-05-23T07:09:56.347Z,46.44
2019-05-23T07:13:03.744Z,46.57
2019-05-23T07:16:22.993Z,44.89
2019-05-23T07:19:42.311Z,43.02
2019-05-23T07:22:52.036Z,42.14
2019-05-23T07:26:00.807Z,42.20
2019-05-23T07:29:10.879Z,41.55
2019-05-23T07:32:19.596Z,42.60
2019-05-23T07:35:28.368Z,42.85
2019-05-23T07:38:37.091Z,41.94
2019-05-23T07:41:45.817Z,42.64
2019-05-23T07:45:07.383Z,42.34
2019-05-23T07:48:16.006Z,40.49
2019-05-23T07:51:24.714Z,39.21
2019-05-23T07:54:39.311Z,40.16
2019-05-23T07:57:48.094Z,40.43
2019-05-23T08:01:09.632Z,40.40
2019-05-23T08:04:21.771Z,41.04
2019-05-23T08:07:32.726Z,41.28
2019-05-23T08:10:41.489Z,40.42
2019-05-23T08:13:52.192Z,42.31
2019-05-23T08:17:01.087Z,43.41
2019-05-23T08:20:10.940Z,42.92
2019-05-23T08:23:19.941Z,42.78
2019-05-23T08:26:30.904Z,44.96
2019-05-23T08:29:50.260Z,44.36
2019-05-23T08:32:58.901Z,44.25
2019-05-23T08:36:07.778Z,44.74
2019-05-23T08:39:18.369Z,44.83
2019-05-23T08:42:27.573Z,44.51
2019-05-23T08:45:47.129Z,43.48
2019-05-23T08:49:08.595Z,43.44
2019-05-23T08:52:27.351Z,44.82
2019-05-23T08:55:37.250Z,43.81
2019-05-23T08:58:46.405Z,41.33
2019-05-23T09:01:55.268Z,42.28
2019-05-23T09:05:06.576Z,41.45
2019-05-23T09:08:17.322Z,43.18
2019-05-23T09:11:27.081Z,42.10
2019-05-23T09:14:47.917Z,40.54
2019-05-23T09:17:56.928Z,40.74
2019-05-23T09:21:16.768Z,40.63
2019-05-23T09:24:25.850Z,40.78
2019-05-23T09:27:46.491Z,39.85
2019-05-23T09:30:56.284Z,41.21
2019-05-23T09:34:06.227Z,40.23
2019-05-23T09:37:16.828Z,40.14
2019-05-23T09:40:25.875Z,40.42
2019-05-23T09:43:34.722Z,39.94
2019-05-23T09:46:43.536Z,39.67
2019-05-23T09:49:53.795Z,40.89
2019-05-23T09:53:04.130Z,39.00
2019-05-23T09:56:12.952Z,38.95
2019-05-23T09:59:21.661Z,39.21
2019-05-23T10:02:30.317Z,37.83
2019-05-23T10:05:43.639Z,37.29
2019-05-23T10:08:49.588Z,39.68
2019-05-23T10:11:58.436Z,38.52
2019-05-23T10:15:07.667Z,38.06
2019-05-23T10:18:19.325Z,37.43
2019-05-23T10:21:28.060Z,37.37
2019-05-23T10:24:38.917Z,37.13
2019-05-23T10:27:47.433Z,36.27
2019-05-23T10:30:56.081Z,36.19
2019-05-23T10:34:04.992Z,37.43
2019-05-23T10:37:16.522Z,37.27
2019-05-23T10:40:35.709Z,35.80
2019-05-23T10:43:44.434Z,35.42
2019-05-23T10:46:53.042Z,34.34
2019-05-23T10:50:07.282Z,37.10
2019-05-23T10:53:15.530Z,35.99
2019-05-23T10:56:24.324Z,35.50
2019-05-23T10:59:33.430Z,36.47
2019-05-23T11:02:52.641Z,36.38
2019-05-23T11:06:16.346Z,35.51
2019-05-23T11:09:36.760Z,35.04
2019-05-23T11:12:43.506Z,34.87
2019-05-23T11:16:03.173Z,35.27
2019-05-23T11:19:11.906Z,33.87
2019-05-23T11:22:30.782Z,33.94
2019-05-23T11:25:41.222Z,35.81
2019-05-23T11:28:49.903Z,35.22
2019-05-23T11:31:58.693Z,34.38
2019-05-23T11:35:07.619Z,34.95
2019-05-23T11:38:16.876Z,34.73
2019-05-23T11:41:25.689Z,34.16
2019-05-23T11:44:34.401Z,34.32
2019-05-23T11:47:43.242Z,34.24
2019-05-23T11:50:51.867Z,34.03
2019-05-23T11:54:11.465Z,36.03
2019-05-23T11:57:20.157Z,34.21
2019-05-23T12:01:20.655Z,34.19
2019-05-23T12:04:37.547Z,34.89
2019-05-23T12:07:46.428Z,34.20
2019-05-23T12:10:55.045Z,34.24
2019-05-23T12:14:03.759Z,34.03
2019-05-23T12:17:13.220Z,32.25
2019-05-23T12:20:22.154Z,32.60
2019-05-23T12:23:30.682Z,32.07
2019-05-23T12:26:39.528Z,31.93
2019-05-23T12:29:48.033Z,32.61
2019-05-23T12:32:56.676Z,32.41
2019-05-23T12:36:06.201Z,31.86
2019-05-23T12:39:25.705Z,29.46
2019-05-23T12:42:34.537Z,28.51
2019-05-23T12:45:43.450Z,27.59
2019-05-23T12:49:06.846Z,25.83
2019-05-23T12:52:35.821Z,27.40
2019-05-23T12:55:44.642Z,25.80
2019-05-23T12:58:54.095Z,26.69
2019-05-23T13:02:04.703Z,27.00
2019-05-23T13:05:13.589Z,25.27
2019-05-23T13:08:22.536Z,25.57
2019-05-23T13:11:31.367Z,26.28
2019-05-23T13:14:40.277Z,26.98
2019-05-23T13:17:48.935Z,28.57
2019-05-23T13:20:59.546Z,28.28
2019-05-23T13:24:08.256Z,29.81
2019-05-23T13:27:17.234Z,28.94
2019-05-23T13:30:26.460Z,29.12
2019-05-23T13:33:45.756Z,29.54
2019-05-23T13:36:54.481Z,29.98
2019-05-23T13:40:58.281Z,31.12
2019-05-23T13:44:08.479Z,29.33
2019-05-23T13:47:17.080Z,30.62
2019-05-23T13:50:26.030Z,30.28
2019-05-23T13:53:34.658Z,31.37
2019-05-23T13:56:47.611Z,31.16
2019-05-23T13:59:53.970Z,29.66
2019-05-23T14:03:02.739Z,30.62
2019-05-23T14:06:11.837Z,32.69
2019-05-23T14:09:23.600Z,32.17
2019-05-23T14:12:33.921Z,31.67
2019-05-23T14:15:44.838Z,31.70
2019-05-23T14:18:53.775Z,31.94
2019-05-23T14:22:03.412Z,32.53
2019-05-23T14:25:13.066Z,32.23
2019-05-23T14:28:34.139Z,32.89
2019-05-23T14:32:01.381Z,33.11
2019-05-23T14:35:35.042Z,32.79
2019-05-23T14:38:43.787Z,31.55
2019-05-23T14:41:58.784Z,31.20
2019-05-23T14:45:36.428Z,32.98
2019-05-23T14:49:04.083Z,32.15
2019-05-23T14:52:19.536Z,31.75
2019-05-23T14:55:27.937Z,32.71
2019-05-23T14:58:37.057Z,30.89
2019-05-23T15:01:46.935Z,31.04
2019-05-23T15:04:55.790Z,32.49
2019-05-23T15:08:04.432Z,30.91
2019-05-23T15:11:13.067Z,32.59
2019-05-23T15:14:32.122Z,32.71
2019-05-23T15:17:40.846Z,31.24
2019-05-23T15:20:49.516Z,32.12
2019-05-23T15:23:58.236Z,32.23
2019-05-23T15:27:06.946Z,32.00
2019-05-23T15:30:15.456Z,33.06
2019-05-23T15:33:23.970Z,32.62
2019-05-23T15:36:32.587Z,32.84
2019-05-23T15:39:51.450Z,33.43
2019-05-23T15:43:00.102Z,33.21
2019-05-23T15:46:08.660Z,33.05
2019-05-23T15:49:17.503Z,32.83
2019-05-23T15:52:34.743Z,32.38
2019-05-23T15:55:57.912Z,33.29
2019-05-23T15:59:31.846Z,32.19
2019-05-23T16:02:47.312Z,32.67
2019-05-23T16:05:56.748Z,32.86
2019-05-23T16:09:29.255Z,32.94
2019-05-23T16:12:42.578Z,32.27
2019-05-23T16:15:51.421Z,32.32
2019-05-23T16:19:00.065Z,33.23
2019-05-23T16:22:19.212Z,32.78
2019-05-23T16:25:27.710Z,33.38
2019-05-23T16:28:36.642Z,32.21
2019-05-23T16:31:45.207Z,32.00
2019-05-23T16:34:54.017Z,32.75
2019-05-23T16:38:02.681Z,33.11
2019-05-23T16:41:11.900Z,32.71
2019-05-23T16:44:31.138Z,33.28
2019-05-23T16:47:39.876Z,33.73
2019-05-23T16:50:48.721Z,33.16
2019-05-23T16:53:58.505Z,35.31
2019-05-23T16:57:19.802Z,34.16
2019-05-23T17:00:53.205Z,33.19
2019-05-23T17:04:14.683Z,33.58
2019-05-23T17:07:41.119Z,33.09
2019-05-23T17:11:00.800Z,33.63
2019-05-23T17:14:22.391Z,33.58
2019-05-23T17:18:00.640Z,33.97
2019-05-23T17:21:02.400Z,33.08
2019-05-23T17:24:45.516Z,33.30
2019-05-23T17:28:25.625Z,32.96
2019-05-23T17:31:36.935Z,33.17
2019-05-23T17:34:45.733Z,33.33
2019-05-23T17:38:04.781Z,33.39
2019-05-23T17:41:13.625Z,33.29
2019-05-23T17:44:23.981Z,33.77
2019-05-23T17:47:32.693Z,34.37
2019-05-23T17:50:41.416Z,34.29
2019-05-23T17:53:50.068Z,34.32
2019-05-23T17:56:58.597Z,33.40
2019-05-23T18:00:06.808Z,33.34
2019-05-23T18:04:12.272Z,33.11
2019-05-23T18:07:21.300Z,33.45
2019-05-23T18:10:44.009Z,34.44
2019-05-23T18:13:40.659Z,34.61
2019-05-23T18:16:49.388Z,34.27
2019-05-23T18:19:58.443Z,34.51
2019-05-23T18:23:07.407Z,34.09
2019-05-23T18:26:16.212Z,34.47
2019-05-23T18:29:24.924Z,34.60
2019-05-23T18:32:34.641Z,34.52
2019-05-23T18:35:44.034Z,34.53
2019-05-23T18:38:52.743Z,34.89
2019-05-23T18:42:02.145Z,35.12
2019-05-23T18:45:12.058Z,35.35
2019-05-23T18:48:20.740Z,35.48
2019-05-23T18:51:29.916Z,35.75
2019-05-23T18:54:38.428Z,35.60
2019-05-23T18:57:47.127Z,36.05
2019-05-23T19:01:13.031Z,35.67
2019-05-23T19:04:21.761Z,36.52
2019-05-23T19:07:32.575Z,35.92
2019-05-23T19:10:43.635Z,35.81
2019-05-23T19:13:53.997Z,35.96
2019-05-23T19:17:02.898Z,36.40
2019-05-23T19:20:22.293Z,37.05
2019-05-23T19:23:31.266Z,37.79
2019-05-23T19:26:40.606Z,38.78
2019-05-23T19:29:49.221Z,38.60
2019-05-23T19:33:11.629Z,39.37
2019-05-23T19:36:20.184Z,38.91
2019-05-23T19:39:30.223Z,39.92
2019-05-23T19:42:39.169Z,39.95
2019-05-23T19:45:48.181Z,40.99
2019-05-23T19:48:58.198Z,41.31
2019-05-23T19:52:08.007Z,42.27
2019-05-23T19:55:28.400Z,42.01
2019-05-23T19:58:38.258Z,41.76
2019-05-23T20:02:17.694Z,43.04
2019-05-23T20:05:36.767Z,43.65
2019-05-23T20:08:47.312Z,43.76
2019-05-23T20:11:56.230Z,44.59
2019-05-23T20:15:15.535Z,45.43
2019-05-23T20:18:24.890Z,46.00
2019-05-23T20:21:34.009Z,46.96
2019-05-23T20:24:42.732Z,46.39
2019-05-23T20:27:51.416Z,46.86
2019-05-23T20:31:00.605Z,47.54
2019-05-23T20:34:09.473Z,49.05
2019-05-23T20:37:18.251Z,48.78
2019-05-23T20:40:28.629Z,48.83
2019-05-23T20:43:37.326Z,49.55
2019-05-23T20:46:46.032Z,49.32
2019-05-23T20:49:54.659Z,50.77
2019-05-23T20:53:03.329Z,51.67
2019-05-23T20:56:12.100Z,51.69
2019-05-23T20:59:20.757Z,52.44
2019-05-23T21:02:30.435Z,53.16
2019-05-23T21:05:40.235Z,53.24
2019-05-23T21:08:49.187Z,53.28
2019-05-23T21:11:57.801Z,53.28
2019-05-23T21:15:07.685Z,53.38
2019-05-23T21:18:26.781Z,53.67
2019-05-23T21:21:51.845Z,54.01
2019-05-23T21:25:00.555Z,53.77
2019-05-23T21:28:09.204Z,54.14
2019-05-23T21:31:21.702Z,54.74
2019-05-23T21:34:30.259Z,54.92
2019-05-23T21:37:38.877Z,55.73
2019-05-23T21:40:48.714Z,55.99
2019-05-23T21:43:58.921Z,56.04
2019-05-23T21:47:07.982Z,56.32
2019-05-23T21:50:16.522Z,56.63
2019-05-23T21:53:25.032Z,57.03
2019-05-23T21:56:43.973Z,56.34
2019-05-23T21:59:52.589Z,56.13
2019-05-23T22:03:03.297Z,56.13
2019-05-23T22:06:14.991Z,56.42
2019-05-23T22:09:23.816Z,57.69
2019-05-23T22:12:35.038Z,57.66
2019-05-23T22:15:42.939Z,58.63
2019-05-23T22:18:51.590Z,57.97
2019-05-23T22:22:00.412Z,58.13
2019-05-23T22:25:09.392Z,57.01
2019-05-23T22:28:18.401Z,57.27
2019-05-23T22:31:28.131Z,56.86
2019-05-23T22:34:43.797Z,57.97
2019-05-23T22:37:52.555Z,57.02
2019-05-23T22:41:01.282Z,58.03
2019-05-23T22:44:10.587Z,57.82
2019-05-23T22:47:30.241Z,58.11
2019-05-23T22:50:38.060Z,58.40
2019-05-23T22:53:46.732Z,59.07
2019-05-23T22:56:55.599Z,58.65
2019-05-23T23:00:05.346Z,58.65
2019-05-23T23:03:32.302Z,59.93
2019-05-23T23:06:41.026Z,60.44
2019-05-23T23:09:49.956Z,61.09
2019-05-23T23:12:58.705Z,61.05
2019-05-23T23:16:19.708Z,61.59
2019-05-23T23:19:39.431Z,61.57
2019-05-23T23:22:48.001Z,62.50
2019-05-23T23:25:57.035Z,62.25
2019-05-23T23:29:06.143Z,61.93
2019-05-23T23:32:14.886Z,62.95
2019-05-23T23:35:23.530Z,63.15
2019-05-23T23:38:32.428Z,63.10
2019-05-23T23:41:41.274Z,62.98
2019-05-23T23:44:49.078Z,63.90
2019-05-23T23:48:15.110Z,64.06
2019-05-23T23:51:41.435Z,63.90
2019-05-23T23:55:08.452Z,64.07
2019-05-23T23:58:16.332Z,63.90
